createdAt,value
2018-11-21T00:01:49.317Z,22.43
2018-11-21T00:04:23.039Z,23.30
2018-11-21T00:06:56.759Z,24.30
2018-11-21T00:09:30.477Z,24.37
2018-11-21T00:12:04.222Z,24.37
2018-11-21T00:14:37.848Z,24.13
2018-11-21T00:17:11.615Z,25.43
2018-11-21T00:19:45.560Z,25.47
2018-11-21T00:22:20.397Z,25.40
2018-11-21T00:24:54.047Z,25.50
2018-11-21T00:27:27.937Z,25.00
2018-11-21T00:30:01.563Z,24.97
2018-11-21T00:32:35.366Z,24.93
2018-11-21T00:35:09.783Z,25.53
2018-11-21T00:37:43.456Z,24.20
2018-11-21T00:40:17.250Z,25.27
2018-11-21T00:42:51.089Z,25.00
2018-11-21T00:45:24.711Z,25.27
2018-11-21T00:47:58.437Z,23.93
2018-11-21T00:50:32.118Z,25.67
2018-11-21T00:53:05.777Z,25.93
2018-11-21T00:55:39.405Z,23.93
2018-11-21T00:58:13.068Z,25.10
2018-11-21T01:00:46.713Z,26.33
2018-11-21T01:03:20.493Z,27.53
2018-11-21T01:05:54.105Z,24.70
2018-11-21T01:08:27.754Z,24.87
2018-11-21T01:11:01.384Z,26.33
2018-11-21T01:13:35.149Z,24.87
2018-11-21T01:16:08.802Z,25.07
2018-11-21T01:18:42.579Z,26.60
2018-11-21T01:21:16.213Z,26.13
2018-11-21T01:23:49.982Z,26.13
2018-11-21T01:26:23.623Z,26.13
2018-11-21T01:28:57.385Z,25.77
2018-11-21T01:31:31.446Z,25.93
2018-11-21T01:34:05.258Z,27.77
2018-11-21T01:36:38.933Z,27.47
2018-11-21T01:39:12.700Z,26.67
2018-11-21T01:41:46.358Z,26.43
2018-11-21T01:44:20.038Z,27.87
2018-11-21T01:46:53.678Z,26.27
2018-11-21T01:49:27.360Z,25.27
2018-11-21T01:52:01.002Z,26.27
2018-11-21T01:54:34.758Z,27.83
2018-11-21T01:57:08.386Z,27.80
2018-11-21T01:59:42.050Z,26.83
2018-11-21T02:02:15.692Z,26.97
2018-11-21T02:04:49.447Z,27.57
2018-11-21T02:07:23.072Z,27.50
2018-11-21T02:09:56.757Z,29.47
2018-11-21T02:12:30.400Z,27.67
2018-11-21T02:15:04.322Z,27.73
2018-11-21T02:17:37.986Z,27.43
2018-11-21T02:20:11.761Z,27.63
2018-11-21T02:22:45.494Z,28.63
2018-11-21T02:25:19.174Z,27.70
2018-11-21T02:27:52.800Z,27.93
2018-11-21T02:30:26.543Z,27.73
2018-11-21T02:33:00.180Z,27.57
2018-11-21T02:35:34.084Z,28.10
2018-11-21T02:38:07.713Z,27.70
2018-11-21T02:40:41.406Z,27.77
2018-11-21T02:43:15.018Z,29.20
2018-11-21T02:45:48.699Z,27.97
2018-11-21T02:48:22.359Z,28.00
2018-11-21T02:50:56.255Z,28.87
2018-11-21T02:53:30.011Z,28.43
2018-11-21T02:56:03.914Z,28.50
2018-11-21T02:58:37.669Z,28.83
2018-11-21T03:01:11.539Z,28.20
2018-11-21T03:03:45.385Z,28.67
2018-11-21T03:06:19.188Z,29.27
2018-11-21T03:08:52.937Z,28.90
2018-11-21T03:11:26.817Z,29.07
2018-11-21T03:14:00.571Z,28.90
2018-11-21T03:16:34.414Z,29.80
2018-11-21T03:19:08.229Z,29.07
2018-11-21T03:21:42.223Z,29.67
2018-11-21T03:24:15.992Z,30.33
2018-11-21T03:26:50.075Z,30.00
2018-11-21T03:29:23.934Z,29.50
2018-11-21T03:31:57.900Z,30.63
2018-11-21T03:34:31.662Z,29.73
2018-11-21T03:37:05.718Z,30.43
2018-11-21T03:39:39.449Z,30.07
2018-11-21T03:42:13.243Z,31.60
2018-11-21T03:44:46.994Z,30.60
2018-11-21T03:47:20.784Z,31.97
2018-11-21T03:49:54.536Z,30.87
2018-11-21T03:52:28.322Z,31.10
2018-11-21T03:55:02.065Z,31.33
2018-11-21T03:57:36.151Z,29.93
2018-11-21T04:00:11.521Z,30.97
2018-11-21T04:02:45.408Z,30.90
2018-11-21T04:05:19.196Z,31.80
2018-11-21T04:07:53.281Z,31.77
2018-11-21T04:10:27.037Z,30.73
2018-11-21T04:13:00.821Z,31.73
2018-11-21T04:15:34.618Z,31.27
2018-11-21T04:18:08.402Z,31.07
2018-11-21T04:20:42.157Z,29.83
2018-11-21T04:23:15.992Z,28.80
2018-11-21T04:25:49.754Z,32.00
2018-11-21T04:28:23.617Z,30.13
2018-11-21T04:30:57.355Z,32.43
2018-11-21T04:33:31.418Z,31.80
2018-11-21T04:36:05.678Z,31.33
2018-11-21T04:38:39.455Z,30.47
2018-11-21T04:41:13.189Z,28.93
2018-11-21T04:43:47.018Z,30.67
2018-11-21T04:46:20.799Z,30.80
2018-11-21T04:48:54.671Z,29.37
2018-11-21T04:51:28.421Z,29.67
2018-11-21T04:54:02.238Z,30.50
2018-11-21T04:56:35.987Z,29.57
2018-11-21T04:59:09.774Z,31.50
2018-11-21T05:01:43.519Z,30.33
2018-11-21T05:04:17.386Z,29.37
2018-11-21T05:06:51.139Z,30.87
2018-11-21T05:09:24.942Z,29.97
2018-11-21T05:11:58.760Z,29.07
2018-11-21T05:14:32.542Z,28.53
2018-11-21T05:17:06.500Z,30.00
2018-11-21T05:19:40.508Z,30.53
2018-11-21T05:22:14.255Z,31.67
2018-11-21T05:24:48.159Z,28.97
2018-11-21T05:27:21.919Z,31.43
2018-11-21T05:29:55.684Z,28.63
2018-11-21T05:32:29.531Z,29.90
2018-11-21T05:35:03.387Z,29.53
2018-11-21T05:37:37.176Z,28.70
2018-11-21T05:40:11.550Z,31.17
2018-11-21T05:42:45.299Z,27.77
2018-11-21T05:45:19.097Z,29.97
2018-11-21T05:47:52.850Z,30.13
2018-11-21T05:50:26.649Z,30.17
2018-11-21T05:53:00.403Z,28.33
2018-11-21T05:55:34.485Z,28.03
2018-11-21T05:58:08.226Z,29.20
2018-11-21T06:00:42.200Z,26.97
2018-11-21T06:03:15.952Z,26.13
2018-11-21T06:05:49.735Z,29.60
2018-11-21T06:08:23.496Z,28.40
2018-11-21T06:10:57.392Z,28.03
2018-11-21T06:13:31.232Z,28.00
2018-11-21T06:16:05.500Z,28.03
2018-11-21T06:18:39.261Z,27.53
2018-11-21T06:21:13.160Z,27.33
2018-11-21T06:23:46.967Z,28.97
2018-11-21T06:26:20.744Z,27.47
2018-11-21T06:28:54.521Z,28.13
2018-11-21T06:31:28.334Z,27.07
2018-11-21T06:34:02.188Z,28.20
2018-11-21T06:36:35.986Z,29.03
2018-11-21T06:39:09.751Z,28.17
2018-11-21T06:41:43.558Z,28.40
2018-11-21T06:44:17.301Z,31.00
2018-11-21T06:46:51.248Z,29.83
2018-11-21T06:49:24.989Z,29.73
2018-11-21T06:51:58.851Z,28.07
2018-11-21T06:54:32.595Z,33.63
2018-11-21T06:57:06.475Z,31.47
2018-11-21T06:59:40.217Z,26.73
2018-11-21T07:02:14.028Z,30.17
2018-11-21T07:04:47.787Z,31.70
2018-11-21T07:07:21.600Z,29.50
2018-11-21T07:09:55.386Z,31.00
2018-11-21T07:12:29.294Z,32.83
2018-11-21T07:15:03.062Z,29.23
2018-11-21T07:17:36.914Z,32.40
2018-11-21T07:20:12.509Z,28.40
2018-11-21T07:22:46.311Z,28.07
2018-11-21T07:25:21.761Z,29.67
2018-11-21T07:27:55.572Z,30.20
2018-11-21T07:30:29.319Z,29.43
2018-11-21T07:33:03.119Z,29.40
2018-11-21T07:35:36.964Z,30.73
2018-11-21T07:38:10.750Z,29.00
2018-11-21T07:40:44.535Z,32.23
2018-11-21T07:43:18.352Z,29.53
2018-11-21T07:45:52.138Z,29.90
2018-11-21T07:48:26.008Z,28.73
2018-11-21T07:51:02.771Z,33.97
2018-11-21T07:53:36.657Z,33.17
2018-11-21T07:56:57.282Z,29.93
2018-11-21T07:59:31.882Z,31.60
2018-11-21T08:02:20.266Z,31.33
2018-11-21T08:05:01.937Z,29.17
2018-11-21T08:07:41.229Z,30.80
2018-11-21T08:10:43.435Z,28.57
2018-11-21T08:13:46.449Z,32.37
2018-11-21T08:16:42.362Z,32.63
2018-11-21T08:19:35.708Z,30.30
2018-11-21T08:22:46.666Z,32.90
2018-11-21T08:25:51.695Z,31.73
2018-11-21T08:28:32.263Z,30.70
2018-11-21T08:31:06.038Z,32.67
2018-11-21T08:33:39.968Z,32.27
2018-11-21T08:36:13.783Z,29.93
2018-11-21T08:38:47.907Z,29.57
2018-11-21T08:41:21.839Z,30.50
2018-11-21T08:46:29.589Z,32.03
2018-11-21T08:49:03.385Z,29.90
2018-11-21T08:51:37.239Z,32.20
2018-11-21T08:54:11.136Z,29.10
2018-11-21T08:56:45.039Z,29.43
2018-11-21T08:59:18.891Z,30.03
2018-11-21T09:01:53.152Z,31.90
2018-11-21T09:04:26.987Z,31.10
2018-11-21T09:07:00.857Z,35.87
2018-11-21T09:09:34.622Z,30.23
2018-11-21T09:12:08.877Z,31.03
2018-11-21T09:14:42.270Z,33.23
2018-11-21T09:17:16.099Z,29.50
2018-11-21T09:19:49.872Z,31.13
2018-11-21T09:22:23.803Z,35.40
2018-11-21T09:24:57.530Z,30.47
2018-11-21T09:27:32.013Z,32.30
2018-11-21T09:30:11.722Z,30.77
2018-11-21T09:32:46.288Z,30.07
2018-11-21T09:35:20.398Z,29.90
2018-11-21T09:37:54.204Z,29.27
2018-11-21T09:40:27.950Z,28.83
2018-11-21T09:43:01.758Z,31.50
2018-11-21T09:45:35.508Z,31.53
2018-11-21T09:48:09.393Z,30.97
2018-11-21T09:50:43.175Z,29.07
2018-11-21T09:53:16.966Z,28.73
2018-11-21T09:55:50.746Z,28.97
2018-11-21T09:58:24.547Z,30.30
2018-11-21T10:01:34.828Z,32.33
2018-11-21T10:04:08.645Z,30.40
2018-11-21T10:06:43.906Z,31.03
2018-11-21T10:09:20.735Z,29.60
2018-11-21T10:11:54.489Z,29.70
2018-11-21T10:14:28.641Z,32.73
2018-11-21T10:17:02.395Z,32.50
2018-11-21T10:19:36.200Z,31.90
2018-11-21T10:22:09.968Z,30.00
2018-11-21T10:24:43.934Z,32.67
2018-11-21T10:27:17.681Z,30.70
2018-11-21T10:29:51.533Z,30.77
2018-11-21T10:32:25.285Z,30.67
2018-11-21T10:34:59.187Z,31.87
2018-11-21T10:37:32.947Z,30.77
2018-11-21T10:40:07.867Z,34.23
2018-11-21T10:42:41.624Z,33.30
2018-11-21T10:45:15.434Z,34.40
2018-11-21T10:47:49.198Z,33.07
2018-11-21T10:50:23.003Z,31.50
2018-11-21T10:52:56.821Z,33.27
2018-11-21T10:55:31.060Z,32.40
2018-11-21T10:58:05.142Z,31.77
2018-11-21T11:00:56.800Z,31.33
2018-11-21T11:03:33.160Z,31.40
2018-11-21T11:06:29.544Z,31.83
2018-11-21T11:09:34.354Z,31.17
2018-11-21T11:12:26.056Z,32.27
2018-11-21T11:15:17.697Z,29.17
2018-11-21T11:18:13.513Z,33.03
2018-11-21T11:21:18.109Z,34.07
2018-11-21T11:24:13.747Z,34.90
2018-11-21T11:27:18.719Z,34.40
2018-11-21T11:30:20.947Z,33.83
2018-11-21T11:33:05.939Z,30.33
2018-11-21T11:36:01.733Z,30.57
2018-11-21T11:38:54.484Z,34.03
2018-11-21T11:41:45.715Z,31.70
2018-11-21T11:44:38.510Z,31.37
2018-11-21T11:47:30.111Z,30.60
2018-11-21T11:50:17.910Z,29.13
2018-11-21T11:53:09.087Z,31.17
2018-11-21T11:56:17.149Z,32.33
2018-11-21T11:59:09.952Z,31.63
2018-11-21T12:02:17.721Z,29.40
2018-11-21T12:05:09.096Z,31.17
2018-11-21T12:08:16.724Z,31.80
2018-11-21T12:11:04.606Z,34.47
2018-11-21T12:14:15.618Z,32.50
2018-11-21T12:17:08.770Z,31.30
2018-11-21T12:20:00.138Z,29.57
2018-11-21T12:22:52.930Z,29.90
2018-11-21T12:25:44.312Z,32.30
2018-11-21T12:28:39.760Z,30.43
2018-11-21T12:31:31.073Z,33.13
2018-11-21T12:34:22.953Z,30.40
2018-11-21T12:37:14.147Z,29.80
2018-11-21T12:40:05.176Z,30.97
2018-11-21T12:43:04.065Z,33.77
2018-11-21T12:45:56.869Z,29.70
2018-11-21T12:48:43.230Z,30.83
2018-11-21T12:51:34.921Z,30.97
2018-11-21T12:54:45.544Z,30.80
2018-11-21T12:57:38.422Z,31.13
2018-11-21T13:00:23.281Z,30.03
2018-11-21T13:03:18.740Z,28.93
2018-11-21T13:06:02.326Z,31.33
2018-11-21T13:08:53.754Z,29.27
2018-11-21T13:11:50.912Z,31.53
2018-11-21T13:14:56.058Z,32.10
2018-11-21T13:17:47.592Z,31.30
2018-11-21T13:20:58.864Z,29.63
2018-11-21T13:24:00.792Z,29.13
2018-11-21T13:26:52.370Z,27.27
2018-11-21T13:29:45.176Z,29.13
2018-11-21T13:32:44.321Z,28.93
2018-11-21T13:35:37.215Z,29.57
2018-11-21T13:38:28.501Z,31.73
2018-11-21T13:41:12.468Z,29.73
2018-11-21T13:44:03.956Z,28.80
2018-11-21T13:46:55.201Z,29.97
2018-11-21T13:49:56.799Z,28.60
2018-11-21T13:52:49.323Z,29.97
2018-11-21T13:55:23.188Z,28.80
2018-11-21T13:57:56.956Z,28.40
2018-11-21T14:00:30.867Z,30.07
2018-11-21T14:03:04.649Z,36.87
2018-11-21T14:05:38.509Z,60.27
2018-11-21T14:08:12.259Z,64.60
2018-11-21T14:10:46.167Z,39.80
2018-11-21T14:13:19.970Z,50.13
2018-11-21T14:15:53.771Z,36.33
2018-11-21T14:18:27.532Z,32.63
2018-11-21T14:21:01.411Z,43.10
2018-11-21T14:23:35.213Z,30.53
2018-11-21T14:26:09.155Z,34.07
2018-11-21T14:28:42.925Z,29.80
2018-11-21T14:31:16.740Z,31.20
2018-11-21T14:33:50.481Z,28.60
2018-11-21T14:36:24.317Z,29.70
2018-11-21T14:38:58.075Z,30.23
2018-11-21T14:41:31.881Z,30.13
2018-11-21T14:44:06.049Z,29.03
2018-11-21T14:46:40.748Z,28.80
2018-11-21T14:49:14.516Z,29.00
2018-11-21T14:51:48.296Z,30.13
2018-11-21T14:54:22.068Z,30.70
2018-11-21T14:56:55.857Z,29.43
2018-11-21T14:59:29.666Z,32.47
2018-11-21T15:02:03.534Z,29.97
2018-11-21T15:04:37.274Z,30.00
2018-11-21T15:07:11.063Z,30.93
2018-11-21T15:09:44.833Z,31.27
2018-11-21T15:12:18.657Z,32.90
2018-11-21T15:14:52.382Z,31.70
2018-11-21T15:17:26.192Z,31.67
2018-11-21T15:20:00.030Z,32.27
2018-11-21T15:22:33.832Z,30.03
2018-11-21T15:25:09.954Z,33.97
2018-11-21T15:27:43.859Z,35.20
2018-11-21T15:30:23.252Z,36.87
2018-11-21T15:32:57.069Z,32.93
2018-11-21T15:35:30.808Z,49.97
2018-11-21T15:38:04.695Z,45.27
2018-11-21T15:40:38.528Z,47.93
2018-11-21T15:43:12.398Z,34.33
2018-11-21T15:45:46.150Z,32.63
2018-11-21T15:48:19.973Z,32.03
2018-11-21T15:50:53.740Z,31.43
2018-11-21T15:53:27.527Z,32.63
2018-11-21T15:56:01.365Z,32.87
2018-11-21T15:58:35.412Z,33.90
2018-11-21T16:01:09.171Z,32.77
2018-11-21T16:03:42.966Z,32.60
2018-11-21T16:06:16.758Z,35.47
2018-11-21T16:08:50.565Z,32.53
2018-11-21T16:11:24.308Z,31.60
2018-11-21T16:13:58.385Z,32.17
2018-11-21T16:16:32.138Z,30.77
2018-11-21T16:19:06.250Z,31.03
2018-11-21T16:21:40.012Z,33.43
2018-11-21T16:24:13.832Z,31.10
2018-11-21T16:26:47.599Z,36.13
2018-11-21T16:29:21.382Z,32.07
2018-11-21T16:31:55.231Z,32.60
2018-11-21T16:34:29.024Z,33.77
2018-11-21T16:37:02.782Z,32.23
2018-11-21T16:39:36.672Z,33.77
2018-11-21T16:42:10.444Z,34.53
2018-11-21T16:44:44.312Z,34.43
2018-11-21T16:47:18.080Z,34.87
2018-11-21T16:49:51.877Z,36.70
2018-11-21T16:52:25.617Z,36.23
2018-11-21T16:54:59.600Z,36.53
2018-11-21T16:57:33.370Z,35.43
2018-11-21T17:00:10.312Z,36.67
2018-11-21T17:02:44.059Z,37.67
2018-11-21T17:05:19.246Z,36.90
2018-11-21T17:07:53.217Z,38.20
2018-11-21T17:10:28.546Z,37.40
2018-11-21T17:13:02.388Z,40.20
2018-11-21T17:15:36.747Z,35.40
2018-11-21T17:18:10.533Z,35.83
2018-11-21T17:20:45.322Z,36.50
2018-11-21T17:23:19.095Z,34.03
2018-11-21T17:25:52.926Z,35.47
2018-11-21T17:28:26.727Z,34.07
2018-11-21T17:31:00.610Z,37.03
2018-11-21T17:33:34.533Z,39.90
2018-11-21T17:36:08.390Z,40.43
2018-11-21T17:38:42.346Z,46.70
2018-11-21T17:41:16.391Z,45.83
2018-11-21T17:43:50.220Z,41.50
2018-11-21T17:46:24.040Z,43.77
2018-11-21T17:48:57.806Z,46.33
2018-11-21T17:51:31.701Z,44.17
2018-11-21T17:54:06.065Z,44.57
2018-11-21T17:56:39.945Z,45.13
2018-11-21T17:59:13.830Z,48.13
2018-11-21T18:01:47.708Z,47.33
2018-11-21T18:04:21.476Z,47.20
2018-11-21T18:06:55.323Z,74.17
2018-11-21T18:09:32.061Z,48.23
2018-11-21T18:12:06.080Z,49.80
2018-11-21T18:14:39.922Z,50.70
2018-11-21T18:17:13.845Z,55.97
2018-11-21T18:19:47.767Z,52.50
2018-11-21T18:22:21.661Z,50.03
2018-11-21T18:24:55.437Z,47.33
2018-11-21T18:27:29.334Z,49.10
2018-11-21T18:30:03.223Z,46.30
2018-11-21T18:32:37.134Z,45.43
2018-11-21T18:35:12.600Z,51.17
2018-11-21T18:37:46.888Z,46.40
2018-11-21T18:40:22.215Z,47.30
2018-11-21T18:42:56.137Z,51.53
2018-11-21T18:45:33.997Z,53.93
2018-11-21T18:48:08.108Z,52.93
2018-11-21T18:50:41.923Z,50.97
2018-11-21T18:53:15.816Z,50.97
2018-11-21T18:56:13.062Z,49.67
2018-11-21T18:59:13.533Z,53.53
2018-11-21T19:01:47.353Z,54.63
2018-11-21T19:04:21.334Z,45.47
2018-11-21T19:06:55.106Z,49.23
2018-11-21T19:09:28.930Z,46.57
2018-11-21T19:12:02.736Z,46.47
2018-11-21T19:14:38.680Z,57.30
2018-11-21T19:17:10.447Z,48.73
2018-11-21T19:19:44.356Z,46.30
2018-11-21T19:22:18.137Z,50.33
2018-11-21T19:24:52.038Z,50.40
2018-11-21T19:27:26.224Z,58.63
2018-11-21T19:30:00.197Z,48.60
2018-11-21T19:32:33.973Z,44.63
2018-11-21T19:35:07.886Z,48.07
2018-11-21T19:37:41.807Z,50.30
2018-11-21T19:40:16.376Z,43.23
2018-11-21T19:42:50.148Z,44.63
2018-11-21T19:45:24.246Z,44.67
2018-11-21T19:47:58.055Z,43.50
2018-11-21T19:50:32.053Z,47.13
2018-11-21T19:53:05.818Z,41.07
2018-11-21T19:55:39.677Z,42.43
2018-11-21T19:58:13.537Z,41.47
2018-11-21T20:00:47.366Z,42.17
2018-11-21T20:03:21.127Z,38.63
2018-11-21T20:05:55.111Z,42.23
2018-11-21T20:08:28.925Z,39.27
2018-11-21T20:11:02.950Z,40.97
2018-11-21T20:13:36.821Z,39.33
2018-11-21T20:16:10.758Z,39.13
2018-11-21T20:18:44.509Z,39.00
2018-11-21T20:21:18.473Z,39.87
2018-11-21T20:23:52.255Z,41.13
2018-11-21T20:26:26.361Z,40.40
2018-11-21T20:29:00.586Z,40.90
2018-11-21T20:31:34.486Z,44.90
2018-11-21T20:34:08.412Z,38.77
2018-11-21T20:36:42.340Z,39.77
2018-11-21T20:39:16.361Z,38.27
2018-11-21T20:41:51.003Z,38.70
2018-11-21T20:44:24.889Z,43.47
2018-11-21T20:46:58.793Z,41.67
2018-11-21T20:49:32.560Z,41.07
2018-11-21T20:52:06.681Z,40.30
2018-11-21T20:54:40.456Z,41.97
2018-11-21T20:57:14.318Z,40.50
2018-11-21T20:59:50.957Z,41.83
2018-11-21T21:02:24.792Z,45.93
2018-11-21T21:04:58.599Z,41.87
2018-11-21T21:07:32.430Z,44.47
2018-11-21T21:10:06.961Z,40.67
2018-11-21T21:12:41.021Z,43.23
2018-11-21T21:15:14.853Z,46.13
2018-11-21T21:17:49.494Z,49.40
2018-11-21T21:20:24.900Z,43.23
2018-11-21T21:22:59.671Z,43.20
2018-11-21T21:25:33.470Z,44.33
2018-11-21T21:28:07.346Z,42.43
2018-11-21T21:30:41.157Z,45.30
2018-11-21T21:33:14.934Z,41.43
2018-11-21T21:35:48.721Z,41.97
2018-11-21T21:38:22.511Z,41.20
2018-11-21T21:40:56.410Z,39.43
2018-11-21T21:43:30.205Z,38.90
2018-11-21T21:46:07.836Z,41.17
2018-11-21T21:48:37.954Z,42.07
2018-11-21T21:51:14.215Z,42.97
2018-11-21T21:53:48.021Z,39.93
2018-11-21T21:56:21.924Z,40.20
2018-11-21T21:58:55.668Z,39.47
2018-11-21T22:01:29.477Z,43.03
2018-11-21T22:04:03.571Z,40.07
2018-11-21T22:06:37.464Z,41.87
2018-11-21T22:09:12.840Z,39.77
2018-11-21T22:11:46.706Z,38.60
2018-11-21T22:14:20.457Z,37.27
2018-11-21T22:16:54.448Z,37.03
2018-11-21T22:19:28.191Z,39.17
2018-11-21T22:22:01.969Z,38.57
2018-11-21T22:24:35.731Z,37.33
2018-11-21T22:27:09.695Z,38.67
2018-11-21T22:29:43.429Z,35.33
2018-11-21T22:32:17.315Z,37.53
2018-11-21T22:34:51.070Z,36.73
2018-11-21T22:37:24.883Z,35.30
2018-11-21T22:39:58.656Z,33.57
2018-11-21T22:42:32.445Z,33.93
2018-11-21T22:45:07.724Z,36.77
2018-11-21T22:47:42.172Z,35.90
2018-11-21T22:50:17.594Z,34.80
2018-11-21T22:52:51.400Z,34.10
2018-11-21T22:55:25.167Z,32.70
2018-11-21T22:57:58.960Z,38.43
2018-11-21T23:00:43.586Z,34.63
2018-11-21T23:03:18.155Z,35.80
2018-11-21T23:05:51.941Z,36.40
2018-11-21T23:08:25.746Z,34.73
2018-11-21T23:10:59.523Z,34.50
2018-11-21T23:13:33.431Z,33.77
2018-11-21T23:16:07.247Z,33.53
2018-11-21T23:18:41.144Z,33.27
2018-11-21T23:21:14.927Z,34.27
2018-11-21T23:23:49.224Z,36.20
2018-11-21T23:26:22.991Z,32.27
2018-11-21T23:28:56.812Z,32.97
2018-11-21T23:31:30.657Z,35.40
2018-11-21T23:34:04.478Z,33.40
2018-11-21T23:36:38.249Z,35.43
2018-11-21T23:39:12.200Z,32.50
2018-11-21T23:41:46.147Z,37.67
2018-11-21T23:44:20.144Z,34.53
2018-11-21T23:46:53.921Z,32.37
2018-11-21T23:49:27.814Z,33.23
2018-11-21T23:52:01.621Z,35.20
2018-11-21T23:54:35.468Z,34.37
2018-11-21T23:57:16.144Z,37.77
2018-11-21T23:59:43.328Z,35.37
